Time;durP1;ratioP1;P1;durP2;ratioP2;P2;SDS_P1;SDS_P2;PMS_P1;PMS_P2;Temp;Humidity;BMP_temperature;BMP_pressure;BME280_temperature;BME280_humidity;BME280_pressure;Samples;Min_cycle;Max_cycle;Signal;HPM_P1;HPM_P2
2023/03/05 00:01:21;;;;;;;40.60;16.73;;;3.10;99.90;;;;;;5013270;28;20444;-74
2023/03/05 00:03:47;;;;;;;41.47;16.30;;;3.10;99.90;;;;;;5003088;28;20888;-74
2023/03/05 00:06:13;;;;;;;32.83;15.50;;;3.10;99.90;;;;;;5000239;28;20561;-74
2023/03/05 00:08:39;;;;;;;43.40;16.63;;;3.10;99.90;;;;;;5013829;28;20550;-74
2023/03/05 00:11:07;;;;;;;40.03;16.50;;;3.00;99.90;;;;;;5002329;28;20214;-74
2023/03/05 00:13:34;;;;;;;40.07;17.80;;;3.10;99.90;;;;;;5012026;28;20465;-75
2023/03/05 00:16:05;;;;;;;42.60;15.87;;;3.10;99.90;;;;;;5010448;28;20809;-74
2023/03/05 00:18:31;;;;;;;37.57;16.87;;;3.10;99.90;;;;;;5013238;28;20448;-74
2023/03/05 00:20:57;;;;;;;40.07;16.07;;;3.10;99.90;;;;;;5013131;28;20447;-74
2023/03/05 00:23:22;;;;;;;36.77;16.57;;;3.10;99.90;;;;;;5010887;28;20262;-75
2023/03/05 00:25:48;;;;;;;44.27;15.87;;;3.00;99.90;;;;;;5011723;28;20481;-74
2023/03/05 00:28:13;;;;;;;34.63;16.87;;;3.00;99.90;;;;;;5011834;28;20198;-74
2023/03/05 00:30:39;;;;;;;38.80;17.30;;;3.00;99.90;;;;;;5012893;28;20556;-75
2023/03/05 00:33:05;;;;;;;36.43;17.00;;;3.00;99.90;;;;;;5012160;28;20681;-74
2023/03/05 00:35:31;;;;;;;38.30;17.00;;;3.00;99.90;;;;;;5012777;28;20517;-74
2023/03/05 00:37:56;;;;;;;31.50;15.97;;;3.00;99.90;;;;;;5013246;28;20193;-74
2023/03/05 00:40:22;;;;;;;36.10;16.97;;;3.00;99.90;;;;;;5012524;28;20184;-74
2023/03/05 00:42:47;;;;;;;36.93;15.17;;;3.00;99.90;;;;;;5011908;28;20206;-74
2023/03/05 00:45:13;;;;;;;35.87;16.20;;;3.00;99.90;;;;;;5012429;28;20192;-74
2023/03/05 00:47:39;;;;;;;28.87;15.70;;;3.00;99.90;;;;;;5012696;28;20193;-74
2023/03/05 00:50:06;;;;;;;33.27;15.93;;;3.00;99.90;;;;;;5012887;28;20200;-76
2023/03/05 00:52:31;;;;;;;35.30;16.00;;;3.00;99.90;;;;;;5008408;28;20210;-75
2023/03/05 00:54:57;;;;;;;32.60;16.13;;;3.00;99.90;;;;;;4995264;28;20998;-73
2023/03/05 00:57:22;;;;;;;35.63;16.10;;;3.00;99.90;;;;;;5009255;28;20256;-77
2023/03/05 00:59:48;;;;;;;31.27;15.23;;;3.10;99.90;;;;;;5012511;28;20193;-73
2023/03/05 01:02:14;;;;;;;37.37;15.43;;;3.10;99.90;;;;;;5011252;28;20685;-74
2023/03/05 01:04:39;;;;;;;35.33;14.97;;;3.10;99.90;;;;;;5004989;28;20233;-75
2023/03/05 01:07:05;;;;;;;29.97;14.67;;;3.00;99.90;;;;;;5012330;28;20213;-74
2023/03/05 01:09:30;;;;;;;28.47;14.33;;;3.00;99.90;;;;;;5012330;28;20174;-74
2023/03/05 01:11:56;;;;;;;37.13;14.60;;;3.00;99.90;;;;;;5012324;28;20239;-74
2023/03/05 01:14:22;;;;;;;33.83;14.50;;;3.00;99.90;;;;;;5004155;28;20190;-75
2023/03/05 01:16:48;;;;;;;34.73;14.13;;;3.00;99.90;;;;;;5012522;28;20191;-74
2023/03/05 01:19:15;;;;;;;32.80;14.10;;;3.00;99.90;;;;;;5011875;28;20192;-74
2023/03/05 01:21:41;;;;;;;42.00;14.53;;;3.00;99.90;;;;;;5012086;28;20300;-74
2023/03/05 01:24:07;;;;;;;37.83;14.87;;;3.00;99.90;;;;;;4989871;28;20441;-74
2023/03/05 01:26:33;;;;;;;32.70;14.77;;;3.00;99.90;;;;;;5011070;28;20480;-74
2023/03/05 01:28:58;;;;;;;29.23;13.70;;;3.00;99.90;;;;;;5012178;28;20396;-75
2023/03/05 01:31:24;;;;;;;35.27;14.23;;;3.00;99.90;;;;;;5007899;28;20839;-73
2023/03/05 01:33:53;;;;;;;40.23;15.43;;;3.10;99.90;;;;;;5003099;28;20184;-74
2023/03/05 01:36:22;;;;;;;28.20;14.33;;;3.10;99.90;;;;;;5011147;28;20188;-75
2023/03/05 01:38:47;;;;;;;28.13;14.90;;;3.10;99.90;;;;;;5012025;28;20474;-74
2023/03/05 01:41:14;;;;;;;30.60;14.60;;;3.10;99.90;;;;;;5007975;28;20454;-73
2023/03/05 01:43:41;;;;;;;33.13;13.10;;;3.10;99.90;;;;;;5003367;28;20264;-74
2023/03/05 01:46:26;;;;;;;41.50;14.83;;;3.10;99.90;;;;;;5011740;28;20528;-74
2023/03/05 01:49:03;;;;;;;31.93;13.60;;;3.10;99.90;;;;;;5011962;28;20849;-74
2023/03/05 01:51:34;;;;;;;26.43;13.57;;;3.10;99.90;;;;;;5009005;28;20750;-74
2023/03/05 01:54:00;;;;;;;32.97;14.27;;;3.10;99.90;;;;;;5003517;28;20414;-74
2023/03/05 01:56:28;;;;;;;35.53;15.67;;;3.10;99.90;;;;;;5011426;28;20416;-75
2023/03/05 01:58:56;;;;;;;34.83;14.00;;;3.10;99.90;;;;;;5011724;28;20420;-74
2023/03/05 03:31:59;;;;;;;25.00;11.23;;;3.30;99.90;;;;;;5367268;22;20929;-74
2023/03/05 03:34:25;;;;;;;32.10;11.63;;;3.40;99.90;;;;;;4983544;28;20448;-76
2023/03/05 03:36:52;;;;;;;25.70;11.93;;;3.40;99.90;;;;;;4994438;28;20250;-74
2023/03/05 03:39:18;;;;;;;30.87;11.60;;;3.40;99.90;;;;;;5006034;28;20979;-74
2023/03/05 03:41:49;;;;;;;24.00;9.97;;;3.40;99.90;;;;;;4994455;28;21025;-74
2023/03/05 03:44:16;;;;;;;28.40;11.27;;;3.30;99.90;;;;;;4979021;28;20441;-74
2023/03/05 03:46:45;;;;;;;32.13;11.47;;;3.40;99.90;;;;;;4980699;28;20562;-76
2023/03/05 03:49:14;;;;;;;25.80;11.00;;;3.40;99.90;;;;;;4994112;28;20482;-74
2023/03/05 03:51:40;;;;;;;25.37;10.23;;;3.40;99.90;;;;;;4993800;28;20823;-74
2023/03/05 03:54:05;;;;;;;29.63;12.20;;;3.40;99.90;;;;;;4986621;28;20445;-75
2023/03/05 03:56:31;;;;;;;28.80;10.57;;;3.40;99.90;;;;;;4980752;28;20198;-74
2023/03/05 03:58:56;;;;;;;27.20;11.20;;;3.40;99.90;;;;;;4992933;28;20197;-74
2023/03/05 04:01:22;;;;;;;29.97;10.60;;;3.40;99.90;;;;;;4993404;28;20726;-75
2023/03/05 04:03:47;;;;;;;32.00;11.30;;;3.40;99.90;;;;;;4986307;28;20229;-74
2023/03/05 04:06:13;;;;;;;32.77;10.47;;;3.40;99.90;;;;;;4991854;28;20217;-74
2023/03/05 04:08:39;;;;;;;23.67;10.40;;;3.40;99.90;;;;;;4993588;28;20245;-74
2023/03/05 04:11:05;;;;;;;27.03;11.40;;;3.50;99.90;;;;;;4993503;28;20544;-74
2023/03/05 04:13:31;;;;;;;28.60;10.53;;;3.50;99.90;;;;;;4986012;28;20564;-75
2023/03/05 04:15:56;;;;;;;28.63;10.30;;;3.50;99.90;;;;;;4991703;28;20442;-75
2023/03/05 04:18:22;;;;;;;29.00;9.60;;;3.50;99.90;;;;;;4992255;28;20192;-74
2023/03/05 04:20:47;;;;;;;25.13;10.40;;;3.50;99.90;;;;;;4985361;28;20301;-74
2023/03/05 04:23:13;;;;;;;28.70;10.10;;;3.50;99.90;;;;;;4987595;28;20191;-75
2023/03/05 04:25:39;;;;;;;23.67;9.30;;;3.50;99.90;;;;;;4990118;28;20349;-75
2023/03/05 04:28:05;;;;;;;23.97;9.70;;;3.50;99.90;;;;;;4992422;28;20437;-74
2023/03/05 04:30:31;;;;;;;30.50;10.70;;;3.50;99.90;;;;;;4992484;28;20528;-75
2023/03/05 04:32:56;;;;;;;25.60;10.97;;;3.50;99.90;;;;;;4990402;28;20202;-75
2023/03/05 04:35:22;;;;;;;29.27;10.60;;;3.50;99.90;;;;;;4991822;28;20508;-77
2023/03/05 04:37:48;;;;;;;21.27;9.70;;;3.50;99.90;;;;;;4991786;28;20187;-74
2023/03/05 04:40:14;;;;;;;30.83;11.40;;;3.50;99.90;;;;;;4991937;28;20202;-75
2023/03/05 04:42:39;;;;;;;18.50;9.43;;;3.40;99.90;;;;;;4992698;28;20815;-75
2023/03/05 04:45:06;;;;;;;25.53;9.57;;;3.40;99.90;;;;;;4991928;28;20661;-74
2023/03/05 04:47:32;;;;;;;26.57;9.80;;;3.50;99.90;;;;;;4990823;28;20370;-75
2023/03/05 04:49:57;;;;;;;27.77;11.20;;;3.50;99.90;;;;;;4979487;28;20439;-74
2023/03/05 04:52:23;;;;;;;27.13;10.37;;;3.50;99.90;;;;;;4991656;28;20626;-75
2023/03/05 04:54:48;;;;;;;33.60;11.37;;;3.40;99.90;;;;;;4988819;28;20257;-74
2023/03/05 04:57:14;;;;;;;26.77;10.10;;;3.50;99.90;;;;;;4988432;28;20199;-74
2023/03/05 04:59:39;;;;;;;31.30;11.20;;;3.40;99.90;;;;;;4986501;28;20301;-74
2023/03/05 05:02:05;;;;;;;27.37;11.23;;;3.40;99.90;;;;;;4985553;28;20251;-76
2023/03/05 05:04:31;;;;;;;20.93;10.00;;;3.40;99.90;;;;;;4983885;28;20238;-74
2023/03/05 05:06:57;;;;;;;25.70;9.73;;;3.40;99.90;;;;;;4985231;28;20215;-74
2023/03/05 05:09:24;;;;;;;22.30;9.80;;;3.40;99.90;;;;;;4988295;28;20434;-74
2023/03/05 05:11:49;;;;;;;28.53;12.20;;;3.40;99.90;;;;;;4993293;28;20454;-74
2023/03/05 05:14:15;;;;;;;36.63;10.33;;;3.40;99.90;;;;;;4983436;28;20436;-75
2023/03/05 05:16:40;;;;;;;27.10;11.10;;;3.40;99.90;;;;;;4977335;28;20773;-74
2023/03/05 05:19:07;;;;;;;27.67;12.30;;;3.40;99.90;;;;;;4987890;28;20295;-76
2023/03/05 05:21:33;;;;;;;30.70;11.70;;;3.40;99.90;;;;;;4985127;28;20701;-75
2023/03/05 05:23:58;;;;;;;21.80;9.77;;;3.40;99.90;;;;;;4984175;28;20440;-77
2023/03/05 05:26:24;;;;;;;26.17;11.67;;;3.40;99.90;;;;;;4979660;28;20563;-74
2023/03/05 05:28:49;;;;;;;22.93;10.70;;;3.40;99.90;;;;;;4980345;28;20649;-74
2023/03/05 05:31:15;;;;;;;28.13;10.57;;;3.40;99.90;;;;;;4992188;28;20228;-74
2023/03/05 05:33:41;;;;;;;25.40;10.17;;;3.40;99.90;;;;;;4986316;28;20304;-76
2023/03/05 05:36:10;;;;;;;32.33;12.20;;;3.30;99.90;;;;;;4988125;28;20196;-77
2023/03/05 05:38:35;;;;;;;29.07;11.57;;;3.30;99.90;;;;;;4983327;28;20442;-74
2023/03/05 05:41:06;;;;;;;22.07;10.13;;;3.30;99.90;;;;;;4991974;28;20880;-75
2023/03/05 05:43:32;;;;;;;25.43;11.70;;;3.30;99.90;;;;;;4986456;28;20548;-74
2023/03/05 05:45:59;;;;;;;23.40;10.50;;;3.30;99.90;;;;;;4986639;28;20475;-73
2023/03/05 05:48:25;;;;;;;24.63;12.43;;;3.30;99.90;;;;;;4987480;28;20193;-73
2023/03/05 05:50:51;;;;;;;29.37;11.47;;;3.40;99.90;;;;;;4991545;28;20988;-73
2023/03/05 05:53:16;;;;;;;27.37;11.50;;;3.40;99.90;;;;;;4991976;28;20524;-74
2023/03/05 05:55:41;;;;;;;23.60;11.67;;;3.40;99.90;;;;;;4987301;28;20213;-73
2023/03/05 05:58:07;;;;;;;27.27;12.07;;;3.40;99.90;;;;;;4989765;28;20223;-74
2023/03/05 06:00:33;;;;;;;26.63;12.10;;;3.40;99.90;;;;;;4988396;28;20253;-74
2023/03/05 06:02:58;;;;;;;24.10;12.13;;;3.40;99.90;;;;;;4991613;28;20297;-74
2023/03/05 06:05:24;;;;;;;27.40;11.57;;;3.40;99.90;;;;;;4987753;28;20191;-74
2023/03/05 06:07:49;;;;;;;23.27;12.30;;;3.40;99.90;;;;;;4990953;28;20222;-74
2023/03/05 06:10:15;;;;;;;24.93;11.83;;;3.40;99.90;;;;;;4987000;28;20328;-74
2023/03/05 06:12:40;;;;;;;23.17;12.13;;;3.50;99.90;;;;;;4990738;28;20218;-74
2023/03/05 06:15:06;;;;;;;22.40;12.00;;;3.40;99.90;;;;;;4987848;28;20273;-74
2023/03/05 06:17:32;;;;;;;21.93;10.77;;;3.40;99.90;;;;;;4990649;28;20213;-74
2023/03/05 06:19:57;;;;;;;28.80;10.73;;;3.40;99.90;;;;;;4986790;28;20433;-74
2023/03/05 06:22:23;;;;;;;24.07;11.60;;;3.40;99.90;;;;;;4989375;28;20204;-74
2023/03/05 06:24:48;;;;;;;28.57;12.53;;;3.40;99.90;;;;;;4981864;28;20251;-74
2023/03/05 06:27:14;;;;;;;23.73;11.17;;;3.40;99.90;;;;;;4980635;28;20213;-76
2023/03/05 06:29:39;;;;;;;26.63;11.70;;;3.50;99.90;;;;;;4990562;28;20248;-74
2023/03/05 06:32:05;;;;;;;31.57;12.50;;;3.50;99.90;;;;;;4981811;28;20715;-73
2023/03/05 06:34:31;;;;;;;23.77;10.70;;;3.50;99.90;;;;;;4984547;28;20180;-74
2023/03/05 06:36:56;;;;;;;30.90;11.93;;;3.50;99.90;;;;;;4991175;28;20197;-73
2023/03/05 06:39:22;;;;;;;29.57;14.13;;;3.50;99.90;;;;;;4984111;28;20249;-74
2023/03/05 06:41:50;;;;;;;23.97;11.70;;;3.50;99.90;;;;;;4986742;28;20225;-74
2023/03/05 06:44:16;;;;;;;21.00;12.40;;;3.50;99.90;;;;;;4986058;28;20196;-74
2023/03/05 06:46:42;;;;;;;25.83;12.17;;;3.60;99.90;;;;;;4976002;28;21288;-74
2023/03/05 06:49:08;;;;;;;33.30;13.80;;;3.60;99.90;;;;;;4985732;28;20671;-74
2023/03/05 06:51:36;;;;;;;27.40;11.97;;;3.60;99.90;;;;;;4984707;28;20738;-74
2023/03/05 06:54:13;;;;;;;22.40;11.13;;;3.60;99.90;;;;;;4983803;28;20516;-74
2023/03/05 06:56:40;;;;;;;30.90;12.07;;;3.70;99.90;;;;;;4990430;28;20461;-74
2023/03/05 06:59:06;;;;;;;26.00;13.13;;;3.70;99.90;;;;;;4987091;28;20429;-75
2023/03/05 07:01:32;;;;;;;28.17;13.97;;;3.70;99.90;;;;;;4990261;28;20449;-76
2023/03/05 07:03:59;;;;;;;25.17;13.97;;;3.70;99.90;;;;;;4982831;28;20443;-73
2023/03/05 07:06:28;;;;;;;28.33;15.87;;;3.70;99.90;;;;;;4990662;28;20208;-76
2023/03/05 07:08:55;;;;;;;26.23;12.73;;;3.70;99.90;;;;;;4986950;28;20409;-73
2023/03/05 07:11:21;;;;;;;29.80;11.87;;;3.80;99.90;;;;;;4990681;28;20454;-75
2023/03/05 07:13:48;;;;;;;36.63;12.57;;;3.80;99.90;;;;;;4982461;28;20445;-76
2023/03/05 07:16:17;;;;;;;29.03;14.57;;;3.80;99.90;;;;;;4990749;28;20426;-74
2023/03/05 07:18:43;;;;;;;22.87;12.43;;;3.80;99.90;;;;;;4990318;28;20864;-74
2023/03/05 07:21:13;;;;;;;24.03;12.83;;;3.80;99.90;;;;;;4990547;28;20497;-74
2023/03/05 07:23:39;;;;;;;29.93;12.93;;;3.90;99.90;;;;;;4982598;28;20960;-74
2023/03/05 07:26:05;;;;;;;26.23;13.33;;;3.90;99.90;;;;;;4990676;28;20468;-74
2023/03/05 07:28:32;;;;;;;31.60;13.17;;;3.90;99.90;;;;;;4990645;28;20183;-73
2023/03/05 07:31:01;;;;;;;28.57;14.37;;;4.00;99.90;;;;;;4990352;28;20449;-74
2023/03/05 07:33:26;;;;;;;29.13;13.67;;;4.00;99.90;;;;;;4986367;28;20797;-74
2023/03/05 07:35:52;;;;;;;26.43;14.30;;;4.00;99.90;;;;;;4993788;28;20593;-72
2023/03/05 07:38:18;;;;;;;28.67;15.17;;;4.00;99.90;;;;;;4994406;28;20436;-73
2023/03/05 07:40:43;;;;;;;28.23;12.10;;;4.10;99.90;;;;;;4993546;28;20663;-74
2023/03/05 07:43:09;;;;;;;27.17;13.13;;;4.10;99.90;;;;;;4991327;28;20605;-74
2023/03/05 07:45:39;;;;;;;28.20;13.60;;;4.10;99.90;;;;;;4993603;28;20187;-73
2023/03/05 07:48:05;;;;;;;26.37;12.83;;;4.10;99.90;;;;;;4994122;28;20556;-73
2023/03/05 07:50:32;;;;;;;27.23;14.13;;;4.20;99.90;;;;;;4993596;28;20437;-75
2023/03/05 07:52:58;;;;;;;27.13;12.40;;;4.20;99.90;;;;;;4990806;28;20461;-73
2023/03/05 07:55:23;;;;;;;31.17;13.87;;;4.20;99.90;;;;;;4994052;28;20523;-75
2023/03/05 07:57:49;;;;;;;31.03;15.00;;;4.30;99.90;;;;;;4993277;28;20187;-73
2023/03/05 08:00:14;;;;;;;26.13;14.87;;;4.30;99.90;;;;;;4993832;28;20580;-74
2023/03/05 08:02:40;;;;;;;29.60;13.93;;;4.30;99.90;;;;;;4990534;28;20285;-74
2023/03/05 08:05:06;;;;;;;23.13;13.37;;;4.40;99.90;;;;;;4989625;28;20186;-74
2023/03/05 08:07:31;;;;;;;28.27;14.33;;;4.40;99.90;;;;;;4993371;28;20300;-74
2023/03/05 08:09:57;;;;;;;26.80;12.40;;;4.40;99.90;;;;;;4990937;28;20179;-74
2023/03/05 08:12:22;;;;;;;27.43;13.53;;;4.50;99.90;;;;;;4991096;28;20211;-74
2023/03/05 08:14:48;;;;;;;29.60;14.50;;;4.50;99.90;;;;;;4989447;28;20274;-73
2023/03/05 08:17:13;;;;;;;26.07;13.47;;;4.50;99.90;;;;;;4993575;28;20225;-73
2023/03/05 08:19:39;;;;;;;27.00;13.53;;;4.50;99.90;;;;;;4991103;28;20256;-73
2023/03/05 08:22:04;;;;;;;33.63;14.30;;;4.50;99.90;;;;;;4991042;28;20289;-74
2023/03/05 08:24:30;;;;;;;32.43;15.23;;;4.50;99.90;;;;;;4989702;28;20195;-74
2023/03/05 08:26:57;;;;;;;38.00;14.33;;;4.50;99.90;;;;;;4992848;28;20228;-74
2023/03/05 08:29:23;;;;;;;29.10;15.00;;;4.60;99.90;;;;;;4993234;28;20717;-74
2023/03/05 08:31:49;;;;;;;27.40;13.13;;;4.60;99.90;;;;;;4989410;28;20992;-72
2023/03/05 08:34:15;;;;;;;24.40;14.70;;;4.70;99.90;;;;;;4989866;28;20426;-74
2023/03/05 08:36:41;;;;;;;27.77;14.27;;;4.70;99.90;;;;;;4992653;28;20498;-73
2023/03/05 08:39:07;;;;;;;23.33;11.93;;;4.70;99.90;;;;;;4993247;28;20530;-73
2023/03/05 08:41:33;;;;;;;28.50;13.23;;;4.80;99.90;;;;;;4984880;28;20315;-74
2023/03/05 08:43:58;;;;;;;20.33;12.63;;;4.80;99.90;;;;;;4988225;28;20442;-75
2023/03/05 08:46:24;;;;;;;27.77;14.23;;;4.80;99.90;;;;;;4992877;28;20277;-74
2023/03/05 08:48:49;;;;;;;26.67;14.97;;;4.80;99.90;;;;;;4992638;28;20196;-73
2023/03/05 08:51:18;;;;;;;32.47;14.00;;;4.90;99.90;;;;;;4990262;28;20273;-74
2023/03/05 08:53:45;;;;;;;26.87;13.50;;;4.90;99.90;;;;;;4986738;28;20191;-74
2023/03/05 08:56:11;;;;;;;23.93;13.27;;;4.90;99.90;;;;;;4992744;28;20493;-74
2023/03/05 08:58:36;;;;;;;28.60;17.57;;;5.00;99.90;;;;;;4992862;28;20422;-74
2023/03/05 09:01:02;;;;;;;29.27;14.37;;;5.00;99.90;;;;;;4992634;28;20943;-74
2023/03/05 09:03:28;;;;;;;29.17;14.30;;;5.10;99.90;;;;;;4986519;28;20333;-75
2023/03/05 09:05:59;;;;;;;32.63;13.80;;;5.10;99.90;;;;;;4991455;28;20475;-72
2023/03/05 09:08:25;;;;;;;23.20;12.50;;;5.10;99.90;;;;;;4992825;28;20427;-73
2023/03/05 09:10:50;;;;;;;33.83;13.30;;;5.10;99.90;;;;;;4992150;28;20439;-74
2023/03/05 09:13:16;;;;;;;25.70;11.97;;;5.10;99.90;;;;;;4987478;28;20189;-74
2023/03/05 09:15:41;;;;;;;27.93;12.77;;;5.10;99.90;;;;;;4984185;28;20269;-74
2023/03/05 09:18:07;;;;;;;27.30;13.17;;;5.10;99.90;;;;;;4988713;28;20716;-74
2023/03/05 09:20:34;;;;;;;28.10;13.97;;;5.10;99.90;;;;;;4988210;28;20181;-75
2023/03/05 09:23:00;;;;;;;24.50;13.40;;;5.20;99.90;;;;;;4987345;28;20442;-74
2023/03/05 09:25:25;;;;;;;28.63;13.43;;;5.30;99.90;;;;;;4989841;28;20535;-74
2023/03/05 09:27:51;;;;;;;27.90;12.80;;;5.40;99.90;;;;;;4991896;28;20183;-74
2023/03/05 09:30:17;;;;;;;26.13;12.40;;;5.50;99.90;;;;;;4992271;28;20562;-75
2023/03/05 09:32:42;;;;;;;28.10;12.40;;;5.50;99.90;;;;;;4976000;28;20219;-74
2023/03/05 09:35:08;;;;;;;26.60;13.30;;;5.50;99.90;;;;;;4989856;28;20194;-75
2023/03/05 09:37:34;;;;;;;29.83;13.43;;;5.50;99.90;;;;;;4991889;28;20197;-74
2023/03/05 09:39:59;;;;;;;30.60;13.50;;;5.50;99.90;;;;;;4991705;28;20532;-75
2023/03/05 09:42:44;;;;;;;26.87;12.33;;;5.50;99.90;;;;;;4983487;28;20242;-74
2023/03/05 09:45:37;;;;;;;32.13;12.20;;;5.50;99.90;;;;;;4978527;28;20198;-75
2023/03/05 09:48:34;;;;;;;30.70;13.07;;;5.60;99.90;;;;;;4991488;28;20435;-74
2023/03/05 09:51:03;;;;;;;22.10;12.73;;;5.60;99.90;;;;;;4988503;28;20541;-74
2023/03/05 09:53:52;;;;;;;33.27;14.20;;;5.60;99.90;;;;;;4982328;28;20446;-72
2023/03/05 09:56:26;;;;;;;26.83;13.10;;;5.60;99.90;;;;;;4984474;28;20478;-72
2023/03/05 09:59:01;;;;;;;26.23;13.57;;;5.60;99.90;;;;;;4991526;28;21054;-72
2023/03/05 10:01:37;;;;;;;28.17;15.80;;;5.70;99.90;;;;;;4985044;28;20580;-72
2023/03/05 10:04:27;;;;;;;32.90;14.77;;;5.80;99.90;;;;;;4985027;28;20464;-72
2023/03/05 10:07:03;;;;;;;36.13;14.10;;;5.80;99.90;;;;;;4990936;28;20473;-74
2023/03/05 10:09:45;;;;;;;24.90;11.97;;;5.80;99.90;;;;;;4991346;28;20941;-71
2023/03/05 10:12:19;;;;;;;26.73;13.27;;;5.90;99.90;;;;;;4968672;28;20999;-72
2023/03/05 10:14:45;;;;;;;27.53;12.40;;;5.80;99.90;;;;;;4986277;28;20945;-71
2023/03/05 10:17:35;;;;;;;26.87;13.00;;;5.80;99.90;;;;;;4991406;28;20428;-72
2023/03/05 10:20:35;;;;;;;25.10;12.20;;;5.80;99.90;;;;;;4990835;28;20221;-72
2023/03/05 10:23:07;;;;;;;24.07;13.20;;;5.80;99.90;;;;;;4941390;28;20452;-72
2023/03/05 10:25:55;;;;;;;28.10;13.27;;;5.80;99.90;;;;;;4988499;28;20919;-72
2023/03/05 10:28:39;;;;;;;26.23;13.17;;;5.70;99.90;;;;;;4978963;28;20436;-74
2023/03/05 10:31:23;;;;;;;22.40;12.57;;;5.80;99.90;;;;;;4987974;28;20456;-73
2023/03/05 10:34:11;;;;;;;27.07;13.27;;;5.80;99.90;;;;;;4987153;28;20796;-75
2023/03/05 10:37:03;;;;;;;25.07;13.27;;;6.00;99.90;;;;;;4991121;28;20433;-72
2023/03/05 10:39:41;;;;;;;27.40;13.93;;;6.00;99.90;;;;;;4979526;28;20806;-72
2023/03/05 10:42:32;;;;;;;30.20;13.80;;;6.20;99.90;;;;;;4988056;28;20456;-72
2023/03/05 10:45:00;;;;;;;27.30;12.70;;;6.40;99.90;;;;;;4989605;28;20936;-72
2023/03/05 10:47:28;;;;;;;29.60;13.33;;;6.50;99.90;;;;;;4990817;28;20854;-72
2023/03/05 10:49:55;;;;;;;25.20;13.13;;;6.50;99.90;;;;;;4990664;28;20860;-71
2023/03/05 10:52:30;;;;;;;31.23;13.63;;;6.40;99.90;;;;;;4988569;28;20489;-72
2023/03/05 10:54:55;;;;;;;22.97;12.70;;;6.40;99.90;;;;;;4982093;28;20505;-74
2023/03/05 10:57:22;;;;;;;34.10;14.40;;;6.40;99.90;;;;;;4991185;28;20430;-72
2023/03/05 10:59:49;;;;;;;29.80;14.63;;;6.40;99.90;;;;;;4990383;28;20229;-73
2023/03/05 11:02:16;;;;;;;25.17;13.83;;;6.40;99.90;;;;;;4988891;28;20513;-72
2023/03/05 11:04:41;;;;;;;34.60;14.50;;;6.30;99.90;;;;;;4983085;28;20948;-72
2023/03/05 11:07:29;;;;;;;30.53;14.73;;;6.30;99.90;;;;;;4990789;28;20470;-73
2023/03/05 11:10:12;;;;;;;29.20;15.80;;;6.30;99.90;;;;;;4979309;28;20187;-72
2023/03/05 11:12:38;;;;;;;26.23;14.23;;;6.10;99.90;;;;;;4992321;28;20465;-72
2023/03/05 11:15:12;;;;;;;30.10;13.80;;;6.00;99.90;;;;;;4977893;28;20954;-71
2023/03/05 11:17:38;;;;;;;24.60;14.47;;;5.80;99.90;;;;;;4981342;28;20189;-72
2023/03/05 11:20:22;;;;;;;28.83;13.63;;;5.70;99.90;;;;;;4992215;28;20440;-72
2023/03/05 11:23:07;;;;;;;26.00;13.07;;;5.60;99.90;;;;;;4991809;28;20184;-73
2023/03/05 11:25:34;;;;;;;29.30;14.07;;;5.60;99.90;;;;;;4984387;28;20446;-72
2023/03/05 11:28:02;;;;;;;30.00;12.80;;;5.50;99.90;;;;;;4994193;28;20462;-72
2023/03/05 11:30:36;;;;;;;33.03;17.10;;;5.50;99.90;;;;;;4994259;28;20430;-72
2023/03/05 11:33:18;;;;;;;34.50;16.70;;;5.50;99.90;;;;;;4989506;28;20436;-72
2023/03/05 11:35:44;;;;;;;27.27;13.77;;;5.40;99.90;;;;;;4987013;28;20432;-72
2023/03/05 11:38:24;;;;;;;32.27;15.00;;;5.40;99.90;;;;;;4993978;28;20424;-72
2023/03/05 11:40:52;;;;;;;25.87;15.07;;;5.40;99.90;;;;;;4988386;28;20207;-72
2023/03/05 11:43:20;;;;;;;33.50;15.53;;;5.40;99.90;;;;;;4989863;28;20441;-72
2023/03/05 11:45:50;;;;;;;35.40;15.97;;;5.40;99.90;;;;;;4990389;28;20431;-72
2023/03/05 11:48:30;;;;;;;26.30;14.93;;;5.50;99.90;;;;;;4979151;28;20425;-72
2023/03/05 11:51:00;;;;;;;27.70;16.40;;;5.40;99.90;;;;;;4988503;28;20457;-72
2023/03/05 11:53:28;;;;;;;32.23;16.13;;;5.50;99.90;;;;;;4988895;28;20938;-72
2023/03/05 11:56:02;;;;;;;34.63;16.33;;;5.50;99.90;;;;;;4991027;28;20431;-70
2023/03/05 11:58:50;;;;;;;36.23;16.87;;;5.50;99.90;;;;;;4993971;28;20426;-72
2023/03/05 12:01:22;;;;;;;26.93;13.20;;;5.60;99.90;;;;;;4973516;28;20548;-72
2023/03/05 12:03:49;;;;;;;30.10;16.33;;;5.60;99.90;;;;;;4986126;28;20463;-73
2023/03/05 12:06:26;;;;;;;26.27;14.80;;;5.70;99.90;;;;;;4977987;28;20477;-72
2023/03/05 12:09:00;;;;;;;26.20;13.40;;;5.60;99.90;;;;;;4993341;28;20427;-72
2023/03/05 12:11:29;;;;;;;25.03;13.33;;;5.60;99.90;;;;;;4988829;28;20497;-73
2023/03/05 12:14:00;;;;;;;25.10;13.10;;;5.60;99.90;;;;;;4985809;28;20780;-72
2023/03/05 12:16:45;;;;;;;27.27;13.13;;;5.60;99.90;;;;;;4993535;28;20946;-72
2023/03/05 12:19:27;;;;;;;21.37;11.90;;;5.50;99.90;;;;;;4992144;28;20430;-72
2023/03/05 12:21:53;;;;;;;20.90;10.80;;;5.40;99.90;;;;;;4988458;28;20453;-72
2023/03/05 12:24:22;;;;;;;26.30;11.53;;;5.40;99.90;;;;;;4993553;28;20434;-73
2023/03/05 12:26:55;;;;;;;26.70;11.50;;;5.40;99.90;;;;;;4991466;28;20483;-73
2023/03/05 12:29:32;;;;;;;25.70;13.00;;;5.30;99.90;;;;;;4993413;28;20423;-73
2023/03/05 12:32:01;;;;;;;20.33;11.53;;;5.30;99.90;;;;;;4988474;28;20462;-73
2023/03/05 12:34:39;;;;;;;19.23;11.10;;;5.30;99.90;;;;;;4992067;28;20582;-73
2023/03/05 12:37:32;;;;;;;33.30;12.90;;;5.30;99.90;;;;;;4991620;28;20438;-74
2023/03/05 12:40:07;;;;;;;27.83;12.03;;;5.30;99.90;;;;;;4985491;28;20459;-74
2023/03/05 12:42:32;;;;;;;27.60;12.97;;;5.40;99.90;;;;;;4987766;28;20548;-73
2023/03/05 12:45:14;;;;;;;20.27;12.23;;;5.40;99.90;;;;;;4988032;28;20537;-73
2023/03/05 12:47:43;;;;;;;23.40;12.63;;;5.50;99.90;;;;;;4992703;28;20229;-74
2023/03/05 12:50:27;;;;;;;23.13;12.03;;;5.50;99.90;;;;;;4992525;28;20442;-73
2023/03/05 12:52:56;;;;;;;24.13;12.50;;;5.70;99.90;;;;;;4990380;28;20538;-73
2023/03/05 12:55:27;;;;;;;26.60;12.60;;;5.70;99.90;;;;;;4993093;28;20543;-73
2023/03/05 12:58:06;;;;;;;26.43;12.10;;;5.70;99.90;;;;;;4992325;28;20520;-74
2023/03/05 13:00:45;;;;;;;25.40;11.83;;;5.80;99.90;;;;;;4991603;28;20795;-73
2023/03/05 13:03:47;;;;;;;23.33;12.20;;;5.80;99.90;;;;;;4990726;28;20489;-73
2023/03/05 13:06:29;;;;;;;22.03;12.47;;;5.90;99.90;;;;;;4992268;28;21064;-73
2023/03/05 13:09:20;;;;;;;21.67;12.07;;;5.90;99.90;;;;;;4992360;28;20432;-72
2023/03/05 13:11:50;;;;;;;23.17;11.57;;;6.00;99.90;;;;;;4989009;28;20459;-73
2023/03/05 13:14:25;;;;;;;33.27;13.27;;;6.00;99.90;;;;;;4992188;28;21013;-74
2023/03/05 13:16:50;;;;;;;24.03;12.40;;;6.10;99.90;;;;;;4992805;28;20797;-73
2023/03/05 13:19:16;;;;;;;21.77;13.00;;;6.10;99.90;;;;;;4992023;28;20444;-73
2023/03/05 13:21:42;;;;;;;23.43;13.40;;;6.00;99.90;;;;;;4988580;28;20219;-73
2023/03/05 13:24:16;;;;;;;18.80;9.43;;;6.00;99.90;;;;;;4990879;28;20450;-73
2023/03/05 13:26:42;;;;;;;20.13;11.37;;;6.00;99.90;;;;;;4991974;28;20244;-74
2023/03/05 13:29:07;;;;;;;21.17;11.93;;;5.90;99.90;;;;;;4991931;28;20526;-73
2023/03/05 13:31:35;;;;;;;17.33;10.03;;;5.90;99.90;;;;;;4984613;28;20215;-73
2023/03/05 13:34:24;;;;;;;21.70;12.17;;;6.00;99.90;;;;;;4991770;28;20566;-73
2023/03/05 13:37:16;;;;;;;23.03;11.80;;;5.90;99.90;;;;;;4991944;28;20443;-73
2023/03/05 13:39:50;;;;;;;19.50;11.20;;;5.80;99.90;;;;;;4984481;28;20444;-73
2023/03/05 13:42:25;;;;;;;18.90;10.97;;;5.70;99.90;;;;;;4985097;28;20550;-73
2023/03/05 13:45:22;;;;;;;24.00;11.93;;;5.70;99.90;;;;;;4992140;28;20925;-73
2023/03/05 13:47:52;;;;;;;24.97;11.27;;;5.60;99.90;;;;;;4985783;28;20908;-73
2023/03/05 13:50:27;;;;;;;25.83;12.67;;;5.60;99.90;;;;;;4989753;28;20432;-73
2023/03/05 13:52:52;;;;;;;25.83;11.70;;;5.70;99.90;;;;;;4988237;28;20522;-73
2023/03/05 13:55:18;;;;;;;19.77;10.83;;;5.80;99.90;;;;;;4991702;28;20515;-72
2023/03/05 13:57:49;;;;;;;29.90;12.63;;;5.80;99.90;;;;;;4991609;28;20444;-73
2023/03/05 14:00:26;;;;;;;25.23;14.63;;;5.90;99.90;;;;;;4990977;28;20189;-73
2023/03/05 14:02:54;;;;;;;24.90;13.17;;;5.80;99.90;;;;;;4984255;28;20438;-73
2023/03/05 14:05:20;;;;;;;24.00;11.97;;;5.80;99.90;;;;;;4991777;28;21033;-73
2023/03/05 14:07:48;;;;;;;23.03;11.10;;;5.80;99.90;;;;;;4991382;28;20489;-73
2023/03/05 14:10:29;;;;;;;27.23;13.10;;;5.70;99.90;;;;;;4991180;28;20579;-73
2023/03/05 14:12:56;;;;;;;21.00;10.73;;;5.70;99.90;;;;;;4974940;28;20884;-73
2023/03/05 14:15:24;;;;;;;22.63;12.10;;;5.70;99.90;;;;;;4991567;28;20762;-73
2023/03/05 14:17:50;;;;;;;19.33;10.90;;;5.70;99.90;;;;;;4991430;28;20432;-73
2023/03/05 14:20:29;;;;;;;24.67;12.60;;;5.60;99.90;;;;;;4990787;28;20438;-73